Time;durP1;ratioP1;P1;durP2;ratioP2;P2;SDS_P1;SDS_P2;PMS_P1;PMS_P2;Temp;Humidity;BMP_temperature;BMP_pressure;BME280_temperature;BME280_humidity;BME280_pressure;Samples;Min_cycle;Max_cycle;Signal;HPM_P1;HPM_P2
2022/09/17 00:00:31;;;;;;;;;;;;;;;10.95;83.36;101306.88;4966195;28;19914;-64
2022/09/17 00:02:56;;;;;;;;;;;;;;;10.95;83.61;101306.88;4964011;28;19953;-64
2022/09/17 00:05:22;;;;;;;;;;;;;;;10.95;83.45;101299.06;4975231;28;20009;-64
2022/09/17 00:07:48;;;;;;;;;;;;;;;10.94;83.87;101310.31;4962862;28;19951;-64
2022/09/17 00:10:13;;;;;;;;;;;;;;;10.94;83.58;101314.66;4974224;28;19914;-64
2022/09/17 00:12:38;;;;;;;;;;;;;;;10.94;83.51;101325.97;4963870;28;20106;-64
2022/09/17 00:15:03;;;;;;;;;;;;;;;10.91;83.57;101319.78;4964130;28;20370;-64
2022/09/17 00:17:29;;;;;;;;;;;;;;;10.92;84.00;101318.91;4946101;28;19926;-64
2022/09/17 00:19:54;;;;;;;;;;;;;;;10.92;83.43;101324.13;4962845;28;19918;-65
2022/09/17 00:22:19;;;;;;;;;;;;;;;10.92;83.49;101324.13;4962089;28;20519;-64
2022/09/17 00:24:44;;;;;;;;;;;;;;;10.91;84.11;101312.84;4963304;28;19964;-64
2022/09/17 00:27:10;;;;;;;;;;;;;;;10.90;83.97;101318.88;4963525;28;19922;-64
2022/09/17 00:29:35;;;;;;;;;;;;;;;10.91;84.00;101315.44;4963253;28;20348;-64
2022/09/17 00:32:00;;;;;;;;;;;;;;;10.91;84.12;101319.78;4945814;28;19945;-64
2022/09/17 00:34:26;;;;;;;;;;;;;;;10.92;83.91;101327.66;4963017;28;19922;-64
2022/09/17 00:36:51;;;;;;;;;;;;;;;10.92;84.27;101325.03;4962288;28;19925;-60
2022/09/17 00:39:16;;;;;;;;;;;;;;;10.90;83.93;101333.66;4962557;28;19918;-60
2022/09/17 00:41:42;;;;;;;;;;;;;;;10.91;83.92;101325.00;4963246;28;20562;-60
2022/09/17 00:44:26;;;;;;;;;;;;;;;10.90;84.07;101334.53;4961217;28;19921;-60
2022/09/17 00:46:52;;;;;;;;;;;;;;;10.92;83.95;101337.16;4962018;28;19929;-60
2022/09/17 00:49:23;;;;;;;;;;;;;;;10.91;83.82;101331.09;4962080;28;19918;-60
2022/09/17 00:51:53;;;;;;;;;;;;;;;10.92;83.92;101327.66;4962018;28;19972;-60
2022/09/17 00:54:19;;;;;;;;;;;;;;;10.92;83.68;101335.47;4969448;28;19914;-60
2022/09/17 00:56:44;;;;;;;;;;;;;;;10.92;83.61;101334.56;4967329;28;19922;-60
2022/09/17 00:59:09;;;;;;;;;;;;;;;10.92;83.74;101342.38;4986206;28;19914;-60
2022/09/17 01:01:35;;;;;;;;;;;;;;;10.89;83.88;101335.38;4959333;28;19925;-60
2022/09/17 01:04:01;;;;;;;;;;;;;;;10.91;83.35;101340.63;4988289;28;19909;-60
2022/09/17 01:06:29;;;;;;;;;;;;;;;10.90;83.71;101337.13;4978486;28;19920;-60
2022/09/17 01:09:14;;;;;;;;;;;;;;;10.90;83.99;101338.88;4975822;28;19922;-60
2022/09/17 01:11:39;;;;;;;;;;;;;;;10.90;84.02;101349.28;4982553;28;19925;-60
2022/09/17 01:14:20;;;;;;;;;;;;;;;10.90;83.76;101351.91;4976219;28;19921;-60
2022/09/17 01:17:05;;;;;;;;;;;;;;;10.91;83.80;101340.63;4987493;28;19968;-60
2022/09/17 01:20:03;;;;;;;;;;;;;;;10.91;83.91;101338.91;4963097;28;19914;-60
2022/09/17 01:22:43;;;;;;;;;;;;;;;10.92;84.14;101343.28;4960042;28;19932;-60
2022/09/17 01:25:23;;;;;;;;;;;;;;;10.91;84.43;101351.06;4980105;28;20359;-60
2022/09/17 01:28:07;;;;;;;;;;;;;;;10.90;84.03;101362.31;4975059;28;19936;-60
2022/09/17 01:30:35;;;;;;;;;;;;;;;10.90;84.58;101363.19;4980729;28;19917;-60
2022/09/17 01:33:17;;;;;;;;;;;;;;;10.90;84.10;101355.38;4994056;28;19914;-60
2022/09/17 01:35:51;;;;;;;;;;;;;;;10.92;84.29;101352.81;4982791;28;20001;-60
2022/09/17 01:38:31;;;;;;;;;;;;;;;10.91;84.12;101354.56;4984400;28;19917;-60
2022/09/17 01:41:11;;;;;;;;;;;;;;;10.92;84.23;101355.41;4982478;28;19910;-59
2022/09/17 01:43:39;;;;;;;;;;;;;;;10.91;84.65;101370.19;4992351;28;19909;-59
2022/09/17 01:46:25;;;;;;;;;;;;;;;10.90;84.37;101365.81;4984100;28;20262;-59
2022/09/17 01:48:55;;;;;;;;;;;;;;;10.92;84.45;101373.66;4979272;28;19917;-60
2022/09/17 01:51:26;;;;;;;;;;;;;;;10.92;84.95;101364.16;4982815;28;20429;-60
2022/09/17 01:53:56;;;;;;;;;;;;;;;10.92;84.74;101371.06;4991815;28;19909;-60
2022/09/17 01:56:24;;;;;;;;;;;;;;;10.91;84.36;101359.75;4965303;28;19956;-59
2022/09/17 01:58:56;;;;;;;;;;;;;;;10.93;84.69;101373.75;4961234;28;20017;-60
2022/09/17 02:01:23;;;;;;;;;;;;;;;10.92;84.24;101368.47;4974670;28;19921;-60
2022/09/17 02:03:52;;;;;;;;;;;;;;;10.91;84.20;101369.31;4981903;28;20365;-60
2022/09/17 02:06:24;;;;;;;;;;;;;;;10.90;84.80;101365.81;4979412;28;19914;-60
2022/09/17 02:08:49;;;;;;;;;;;;;;;10.89;84.51;101365.75;4983272;28;19918;-60
2022/09/17 02:11:16;;;;;;;;;;;;;;;10.87;84.56;101365.72;4986751;28;19967;-60
2022/09/17 02:13:53;;;;;;;;;;;;;;;10.88;84.20;101369.22;4985320;28;19922;-60
2022/09/17 02:16:23;;;;;;;;;;;;;;;10.87;84.56;101368.31;4987487;28;19924;-60
2022/09/17 02:18:54;;;;;;;;;;;;;;;10.88;84.68;101372.72;4985223;28;19937;-60
2022/09/17 02:21:35;;;;;;;;;;;;;;;10.86;84.82;101363.97;4987932;28;19943;-60
2022/09/17 02:24:07;;;;;;;;;;;;;;;10.86;84.65;101368.28;4989691;28;20397;-60
2022/09/17 02:26:35;;;;;;;;;;;;;;;10.86;84.77;101363.06;4975119;28;19976;-60
2022/09/17 02:29:13;;;;;;;;;;;;;;;10.86;84.73;101363.06;4982932;28;19914;-60
2022/09/17 02:31:41;;;;;;;;;;;;;;;10.88;84.66;101377.94;4985710;28;19996;-59
2022/09/17 02:34:07;;;;;;;;;;;;;;;10.88;84.63;101375.31;4982121;28;19925;-60
2022/09/17 02:36:34;;;;;;;;;;;;;;;10.88;84.39;101372.72;4979572;28;19914;-59
2022/09/17 02:39:00;;;;;;;;;;;;;;;10.88;84.51;101377.94;4982000;28;19918;-59
2022/09/17 02:41:33;;;;;;;;;;;;;;;10.89;84.42;101390.13;4974307;28;19947;-60
2022/09/17 02:44:13;;;;;;;;;;;;;;;10.89;84.70;101378.78;4973459;28;19973;-60
2022/09/17 02:46:44;;;;;;;;;;;;;;;10.89;85.02;101384.00;4979060;28;19914;-60
2022/09/17 02:49:27;;;;;;;;;;;;;;;10.88;84.39;101382.25;4989959;28;20354;-60
2022/09/17 02:51:52;;;;;;;;;;;;;;;10.87;84.50;101383.97;4987634;28;19917;-60
2022/09/17 02:54:29;;;;;;;;;;;;;;;10.88;84.49;101387.47;4981974;28;19914;-60
2022/09/17 02:57:04;;;;;;;;;;;;;;;10.86;84.46;101384.81;4987143;28;19997;-60
2022/09/17 02:59:36;;;;;;;;;;;;;;;10.89;84.48;101384.91;4973535;28;19949;-60
2022/09/17 03:02:04;;;;;;;;;;;;;;;10.88;84.49;101382.25;4975743;28;19913;-59
2022/09/17 03:04:31;;;;;;;;;;;;;;;10.85;84.55;101375.22;4984473;28;19968;-59
2022/09/17 03:06:58;;;;;;;;;;;;;;;10.83;84.41;101378.63;4984177;28;20325;-59
2022/09/17 03:09:23;;;;;;;;;;;;;;;10.80;84.42;101389.81;4966896;28;19918;-59
2022/09/17 03:11:48;;;;;;;;;;;;;;;10.77;84.30;101374.97;4980277;28;20389;-59
2022/09/17 03:14:13;;;;;;;;;;;;;;;10.75;84.48;101384.47;4983923;28;20016;-60
2022/09/17 03:16:39;;;;;;;;;;;;;;;10.76;84.59;101380.13;4973592;28;20278;-60
2022/09/17 03:19:04;;;;;;;;;;;;;;;10.76;84.64;101382.75;4979979;28;20324;-60
2022/09/17 03:21:30;;;;;;;;;;;;;;;10.76;84.32;101385.34;4990385;28;20293;-60
2022/09/17 03:23:55;;;;;;;;;;;;;;;10.75;84.12;101381.88;4991637;28;19921;-60
2022/09/17 03:26:20;;;;;;;;;;;;;;;10.74;84.42;101385.31;4980414;28;19914;-59
2022/09/17 03:28:46;;;;;;;;;;;;;;;10.73;84.21;101390.47;4975296;28;19965;-60
2022/09/17 03:31:11;;;;;;;;;;;;;;;10.72;84.21;101386.13;4974353;28;19914;-59
2022/09/17 03:33:36;;;;;;;;;;;;;;;10.72;84.43;101373.09;4977120;28;19973;-60
2022/09/17 03:36:01;;;;;;;;;;;;;;;10.72;84.21;101375.69;4986596;28;19914;-59
2022/09/17 03:38:27;;;;;;;;;;;;;;;10.71;84.08;101379.13;4991435;28;19914;-59
2022/09/17 03:40:56;;;;;;;;;;;;;;;10.68;83.90;101377.28;4980275;28;19993;-60
2022/09/17 03:43:21;;;;;;;;;;;;;;;10.67;84.00;101378.13;4972309;28;19918;-60
2022/09/17 03:45:48;;;;;;;;;;;;;;;10.65;83.82;101374.59;4981986;28;19918;-60
2022/09/17 03:48:13;;;;;;;;;;;;;;;10.64;83.85;101372.81;4988537;28;19941;-64
2022/09/17 03:50:38;;;;;;;;;;;;;;;10.64;83.80;101377.16;4964379;28;19968;-64
2022/09/17 03:53:03;;;;;;;;;;;;;;;10.64;83.72;101379.75;4963107;28;19918;-64
2022/09/17 03:55:28;;;;;;;;;;;;;;;10.63;83.96;101375.38;4962503;28;19991;-64
2022/09/17 03:57:55;;;;;;;;;;;;;;;10.61;83.54;101386.63;4980885;28;19929;-64
2022/09/17 04:00:20;;;;;;;;;;;;;;;10.58;83.55;101383.94;4966680;28;20175;-64
2022/09/17 04:02:45;;;;;;;;;;;;;;;10.57;83.50;101382.19;4963077;28;20273;-64
2022/09/17 04:05:10;;;;;;;;;;;;;;;10.54;83.57;101379.47;4966258;28;19910;-63
2022/09/17 04:07:36;;;;;;;;;;;;;;;10.53;83.46;101380.31;4968295;28;19953;-64
2022/09/17 04:10:01;;;;;;;;;;;;;;;10.53;83.42;101388.13;4965985;28;19925;-64
2022/09/17 04:12:26;;;;;;;;;;;;;;;10.50;83.45;101385.41;4976901;28;19910;-63
2022/09/17 04:14:51;;;;;;;;;;;;;;;10.49;83.51;101387.97;4963819;28;19973;-64
2022/09/17 04:17:17;;;;;;;;;;;;;;;10.49;83.44;101401.00;4962343;28;20319;-63
2022/09/17 04:19:42;;;;;;;;;;;;;;;10.48;83.43;101407.91;4962652;28;19917;-64
2022/09/17 04:22:08;;;;;;;;;;;;;;;10.46;83.50;101399.19;4961666;28;20684;-64
2022/09/17 04:24:33;;;;;;;;;;;;;;;10.46;83.18;101401.78;4961896;28;20386;-63
2022/09/17 04:26:58;;;;;;;;;;;;;;;10.47;83.53;101397.44;4966148;28;20065;-64
2022/09/17 04:29:23;;;;;;;;;;;;;;;10.46;83.49;101401.78;4948384;28;20305;-64
2022/09/17 04:31:48;;;;;;;;;;;;;;;10.45;83.36;101400.00;4966881;28;19949;-64
2022/09/17 04:34:13;;;;;;;;;;;;;;;10.45;83.41;101392.19;4967199;28;19913;-64
2022/09/17 04:36:39;;;;;;;;;;;;;;;10.45;83.42;101397.41;4966339;28;19969;-63
2022/09/17 04:39:04;;;;;;;;;;;;;;;10.46;83.48;101393.97;4965960;28;20389;-63
2022/09/17 04:41:29;;;;;;;;;;;;;;;10.44;83.50;101396.53;4989418;28;19921;-64
2022/09/17 04:43:54;;;;;;;;;;;;;;;10.44;83.90;101399.13;4980577;28;19948;-64
2022/09/17 04:46:19;;;;;;;;;;;;;;;10.45;83.74;101402.59;4978045;28;20249;-60
2022/09/17 04:48:45;;;;;;;;;;;;;;;10.45;83.86;101402.59;4994674;28;19921;-59
2022/09/17 04:51:10;;;;;;;;;;;;;;;10.45;83.96;101407.81;4979909;28;20411;-59
2022/09/17 04:53:37;;;;;;;;;;;;;;;10.42;84.77;101392.09;4983584;28;20440;-60
2022/09/17 04:56:02;;;;;;;;;;;;;;;10.41;84.29;101396.44;4990294;28;20407;-60
2022/09/17 04:58:30;;;;;;;;;;;;;;;10.38;84.32;101396.28;4988431;28;19957;-60
2022/09/17 05:00:55;;;;;;;;;;;;;;;10.37;84.35;101404.06;4989520;28;20579;-60
2022/09/17 05:03:20;;;;;;;;;;;;;;;10.36;84.39;101407.53;4987659;28;20610;-59
2022/09/17 05:05:45;;;;;;;;;;;;;;;10.34;84.26;101403.97;4982136;28;19937;-60
2022/09/17 05:08:10;;;;;;;;;;;;;;;10.34;84.38;101409.19;4992301;28;19909;-60
2022/09/17 05:10:36;;;;;;;;;;;;;;;10.33;84.38;101407.41;4981736;28;19914;-60
2022/09/17 05:13:01;;;;;;;;;;;;;;;10.34;84.33;101403.97;4973761;28;20433;-60
2022/09/17 05:15:26;;;;;;;;;;;;;;;10.33;84.23;101408.28;4978773;28;19925;-60
2022/09/17 05:17:52;;;;;;;;;;;;;;;10.33;84.13;101416.09;4970226;28;19914;-60
2022/09/17 05:20:18;;;;;;;;;;;;;;;10.32;84.03;101422.13;4970610;28;20001;-60
2022/09/17 05:22:44;;;;;;;;;;;;;;;10.32;84.24;101423.84;4969098;28;19922;-60
2022/09/17 05:25:10;;;;;;;;;;;;;;;10.31;84.14;101419.47;4965280;28;20290;-60
2022/09/17 05:27:35;;;;;;;;;;;;;;;10.30;83.91;101423.81;4972462;28;20002;-60
2022/09/17 05:30:00;;;;;;;;;;;;;;;10.31;84.00;101427.28;4987528;28;19945;-60
2022/09/17 05:32:25;;;;;;;;;;;;;;;10.31;84.08;101427.28;4973457;28;20381;-59
2022/09/17 05:34:50;;;;;;;;;;;;;;;10.31;84.00;101429.88;4965765;28;21903;-60
2022/09/17 05:37:16;;;;;;;;;;;;;;;10.30;83.84;101431.63;4971240;28;19968;-60
2022/09/17 05:39:41;;;;;;;;;;;;;;;10.30;84.20;101438.53;4984119;28;19913;-60
2022/09/17 05:42:06;;;;;;;;;;;;;;;10.30;84.04;101430.69;4975530;28;20381;-60
2022/09/17 05:44:31;;;;;;;;;;;;;;;10.30;84.21;101436.81;4984894;28;19914;-59
2022/09/17 05:46:57;;;;;;;;;;;;;;;10.31;84.01;101433.41;4975847;28;19914;-60
2022/09/17 05:49:22;;;;;;;;;;;;;;;10.31;83.93;101438.59;4979462;28;19918;-60
2022/09/17 05:51:48;;;;;;;;;;;;;;;10.32;84.04;101442.09;4977570;28;20377;-61
2022/09/17 05:54:14;;;;;;;;;;;;;;;10.32;84.14;101442.09;4990204;28;19921;-60
2022/09/17 05:56:39;;;;;;;;;;;;;;;10.32;84.27;101448.16;4985903;28;20312;-60
2022/09/17 05:59:04;;;;;;;;;;;;;;;10.32;84.20;101447.28;4988206;28;20286;-60
2022/09/17 06:01:29;;;;;;;;;;;;;;;10.33;84.23;101454.28;4977527;28;19914;-60
2022/09/17 06:03:54;;;;;;;;;;;;;;;10.34;84.49;101461.28;4977103;28;19920;-61
2022/09/17 06:06:20;;;;;;;;;;;;;;;10.35;84.33;101478.69;4983972;28;19920;-61
2022/09/17 06:08:45;;;;;;;;;;;;;;;10.34;84.27;101469.09;4989551;28;19936;-61
2022/09/17 06:11:10;;;;;;;;;;;;;;;10.33;84.83;101476.00;4979024;28;19985;-60
2022/09/17 06:13:36;;;;;;;;;;;;;;;10.31;84.91;101467.25;4985206;28;19946;-60
2022/09/17 06:16:01;;;;;;;;;;;;;;;10.31;84.82;101467.25;4984816;28;19914;-60
2022/09/17 06:18:29;;;;;;;;;;;;;;;10.29;84.88;101463.69;4973435;28;20016;-60
2022/09/17 06:20:58;;;;;;;;;;;;;;;10.29;85.20;101460.22;4973951;28;19953;-60
2022/09/17 06:23:23;;;;;;;;;;;;;;;10.30;84.81;101459.34;4983026;28;20337;-61
2022/09/17 06:25:58;;;;;;;;;;;;;;;10.29;84.73;101466.28;4983742;28;19910;-60
2022/09/17 06:28:24;;;;;;;;;;;;;;;10.29;85.13;101468.91;4978661;28;19918;-60
2022/09/17 06:30:53;;;;;;;;;;;;;;;10.30;84.73;101470.69;4981599;28;19971;-60
2022/09/17 06:33:18;;;;;;;;;;;;;;;10.30;84.77;101472.38;4992514;28;20362;-60
2022/09/17 06:35:43;;;;;;;;;;;;;;;10.29;84.98;101486.25;4974884;28;19924;-60
2022/09/17 06:38:09;;;;;;;;;;;;;;;10.30;84.77;101468.06;4986645;28;20472;-60
2022/09/17 06:40:34;;;;;;;;;;;;;;;10.31;84.76;101467.25;4976775;28;19918;-60
2022/09/17 06:42:59;;;;;;;;;;;;;;;10.33;84.97;101469.91;4981969;28;20400;-60
2022/09/17 06:45:25;;;;;;;;;;;;;;;10.34;84.89;101463.88;4983501;28;20440;-60
2022/09/17 06:47:50;;;;;;;;;;;;;;;10.35;84.96;101463.94;4983093;28;20348;-60
2022/09/17 06:50:15;;;;;;;;;;;;;;;10.36;84.93;101463.09;4981164;28;19914;-60
2022/09/17 06:52:51;;;;;;;;;;;;;;;10.37;85.06;101469.19;4992057;28;19949;-60
2022/09/17 06:55:16;;;;;;;;;;;;;;;10.39;84.84;101462.34;4964368;28;19964;-60
2022/09/17 06:57:41;;;;;;;;;;;;;;;10.41;84.92;101463.25;4963812;28;20377;-64
2022/09/17 07:00:08;;;;;;;;;;;;;;;10.41;84.65;101458.94;4974396;28;19921;-64
2022/09/17 07:02:33;;;;;;;;;;;;;;;10.42;84.93;101460.69;4964884;28;19906;-64
2022/09/17 07:04:58;;;;;;;;;;;;;;;10.43;84.82;101459.88;4971491;28;19980;-64
2022/09/17 07:07:23;;;;;;;;;;;;;;;10.43;84.60;101466.81;4962292;28;19998;-64
2022/09/17 07:09:48;;;;;;;;;;;;;;;10.45;84.57;101475.56;4966731;28;19921;-64
2022/09/17 07:12:14;;;;;;;;;;;;;;;10.47;84.71;101466.09;4965051;28;20003;-64
2022/09/17 07:14:39;;;;;;;;;;;;;;;10.49;84.55;101468.75;4967137;28;19921;-64
2022/09/17 07:17:04;;;;;;;;;;;;;;;10.50;84.78;101466.19;4971582;28;20306;-64
2022/09/17 07:19:29;;;;;;;;;;;;;;;10.51;84.25;101480.09;4973052;28;19926;-64
2022/09/17 07:21:54;;;;;;;;;;;;;;;10.52;84.41;101476.66;4975961;28;20377;-65
2022/09/17 07:24:20;;;;;;;;;;;;;;;10.55;84.56;101482.84;4968225;28;19972;-65
2022/09/17 07:26:45;;;;;;;;;;;;;;;10.57;84.56;101477.69;4972220;28;20001;-65
2022/09/17 07:29:11;;;;;;;;;;;;;;;10.59;84.72;101476.91;4976594;28;20513;-64
2022/09/17 07:31:36;;;;;;;;;;;;;;;10.61;84.70;101477.84;4981213;28;19918;-64
2022/09/17 07:34:01;;;;;;;;;;;;;;;10.65;84.49;101483.19;4973264;28;19914;-65
2022/09/17 07:36:27;;;;;;;;;;;;;;;10.69;84.69;101482.41;4976877;28;19936;-65
2022/09/17 07:38:52;;;;;;;;;;;;;;;10.73;84.75;101476.47;4980487;28;20394;-65
2022/09/17 07:41:17;;;;;;;;;;;;;;;10.74;84.86;101473.03;4975946;28;20444;-65
2022/09/17 07:43:42;;;;;;;;;;;;;;;10.78;84.97;101477.53;4986589;28;19914;-64
2022/09/17 07:46:15;;;;;;;;;;;;;;;10.82;84.96;101475.91;4973608;28;19918;-65
2022/09/17 07:48:41;;;;;;;;;;;;;;;10.87;85.15;101480.44;4969781;28;20309;-65
2022/09/17 07:51:06;;;;;;;;;;;;;;;10.92;85.49;101481.47;4989226;28;19909;-65
2022/09/17 07:53:31;;;;;;;;;;;;;;;10.97;84.94;101481.63;4991563;28;19910;-65
2022/09/17 07:56:00;;;;;;;;;;;;;;;11.01;85.32;101472.16;4982026;28;19914;-64
2022/09/17 07:58:32;;;;;;;;;;;;;;;11.05;84.49;101474.03;4987097;28;20001;-65
2022/09/17 08:01:07;;;;;;;;;;;;;;;11.09;84.89;101475.91;4969370;28;20396;-65
2022/09/17 08:03:33;;;;;;;;;;;;;;;11.12;84.71;101471.69;4967286;28;19914;-65
2022/09/17 08:06:02;;;;;;;;;;;;;;;11.19;84.99;101471.88;4969144;28;19960;-65
2022/09/17 08:08:28;;;;;;;;;;;;;;;11.24;85.17;101475.50;4970489;28;20013;-65
2022/09/17 08:10:54;;;;;;;;;;;;;;;11.28;85.01;101482.56;4965986;28;20005;-64
2022/09/17 08:13:19;;;;;;;;;;;;;;;11.33;84.93;101480.13;4970579;28;19929;-65
2022/09/17 08:15:44;;;;;;;;;;;;;;;11.38;84.36;101476.81;4969991;28;20465;-65
2022/09/17 08:18:10;;;;;;;;;;;;;;;11.42;84.03;101475.19;4969656;28;19926;-65
2022/09/17 08:20:35;;;;;;;;;;;;;;;11.46;84.27;101479.66;4971182;28;19918;-65
2022/09/17 08:23:00;;;;;;;;;;;;;;;11.50;84.54;101486.75;4975800;28;19922;-64
2022/09/17 08:25:26;;;;;;;;;;;;;;;11.55;83.89;101476.44;4967983;28;19910;-65
2022/09/17 08:27:55;;;;;;;;;;;;;;;11.61;84.24;101484.44;4971468;28;19914;-64
2022/09/17 08:30:20;;;;;;;;;;;;;;;11.67;84.53;101479.41;4968714;28;19910;-65
2022/09/17 08:32:45;;;;;;;;;;;;;;;11.74;84.59;101481.34;4972946;28;19913;-65
2022/09/17 08:35:11;;;;;;;;;;;;;;;11.80;84.29;101484.16;4969831;28;19921;-65
2022/09/17 08:37:36;;;;;;;;;;;;;;;11.86;84.13;101480.84;4974323;28;20285;-65
2022/09/17 08:40:02;;;;;;;;;;;;;;;11.94;84.17;101470.63;4968550;28;19973;-65
2022/09/17 08:42:40;;;;;;;;;;;;;;;12.04;84.76;101479.63;4971648;28;19920;-65
2022/09/17 08:45:09;;;;;;;;;;;;;;;12.14;83.70;101492.09;4974945;28;20012;-65
2022/09/17 08:47:36;;;;;;;;;;;;;;;12.22;83.37;101487.94;4971469;28;20393;-65
2022/09/17 08:50:04;;;;;;;;;;;;;;;12.29;84.21;101495.09;4969917;28;20270;-65
2022/09/17 08:52:29;;;;;;;;;;;;;;;12.39;84.18;101477.94;4971575;28;20205;-64
2022/09/17 08:55:21;;;;;;;;;;;;;;;12.50;83.88;101483.47;4970743;28;20013;-65
2022/09/17 08:58:04;;;;;;;;;;;;;;;12.59;83.39;101485.44;4939520;28;19922;-60
2022/09/17 09:00:42;;;;;;;;;;;;;;;12.70;83.32;101487.47;4978124;28;19917;-61
2022/09/17 09:03:27;;;;;;;;;;;;;;;12.81;83.71;101492.09;4974734;28;20400;-61
2022/09/17 09:05:55;;;;;;;;;;;;;;;12.92;83.21;101502.78;4977159;28;20000;-61
2022/09/17 09:08:20;;;;;;;;;;;;;;;12.98;82.34;101496.00;4979575;28;19910;-60
2022/09/17 09:10:49;;;;;;;;;;;;;;;13.00;82.81;101502.13;4975966;28;19925;-60
2022/09/17 09:13:17;;;;;;;;;;;;;;;13.01;82.63;101503.03;4961546;28;20052;-60
2022/09/17 09:15:44;;;;;;;;;;;;;;;12.99;82.36;101496.88;4972568;28;19925;-60
2022/09/17 09:18:28;;;;;;;;;;;;;;;12.95;82.47;101498.53;4978150;28;19918;-60
2022/09/17 09:20:57;;;;;;;;;;;;;;;12.95;82.87;101503.78;4971753;28;19921;-60
2022/09/17 09:23:41;;;;;;;;;;;;;;;12.95;83.31;101502.91;4980826;28;19913;-60
2022/09/17 09:26:16;;;;;;;;;;;;;;;12.98;83.44;101500.34;4976791;28;20425;-60
2022/09/17 09:28:53;;;;;;;;;;;;;;;13.05;83.82;101499.66;4972805;28;19977;-60
2022/09/17 09:31:25;;;;;;;;;;;;;;;13.17;84.07;101504.28;4971226;28;19914;-59
2022/09/17 09:33:50;;;;;;;;;;;;;;;13.26;83.87;101504.50;4973087;28;19997;-60
2022/09/17 09:36:20;;;;;;;;;;;;;;;13.35;83.80;101498.63;4978845;28;20016;-60
2022/09/17 09:38:50;;;;;;;;;;;;;;;13.44;83.77;101508.41;4974822;28;19921;-61
2022/09/17 09:41:25;;;;;;;;;;;;;;;13.53;83.19;101504.25;4975557;28;19921;-60
2022/09/17 09:44:01;;;;;;;;;;;;;;;13.63;82.86;101499.22;4975041;28;19914;-60
2022/09/17 09:46:44;;;;;;;;;;;;;;;13.68;82.11;101506.31;4975450;28;19953;-60
2022/09/17 09:49:28;;;;;;;;;;;;;;;13.77;81.66;101502.16;4974313;28;19918;-60
2022/09/17 09:52:19;;;;;;;;;;;;;;;13.82;81.75;101497.91;4977906;28;19913;-59
2022/09/17 09:54:55;;;;;;;;;;;;;;;13.89;81.12;101497.16;4974566;28;19914;-60
2022/09/17 09:57:32;;;;;;;;;;;;;;;13.90;81.04;101498.91;4978288;28;19925;-60
2022/09/17 10:00:16;;;;;;;;;;;;;;;13.88;79.60;101505.88;4976037;28;20420;-60
2022/09/17 10:02:42;;;;;;;;;;;;;;;13.86;78.70;101508.47;4970744;28;19921;-60
2022/09/17 10:05:07;;;;;;;;;;;;;;;13.84;79.01;101506.66;4963042;28;20513;-61
2022/09/17 10:07:41;;;;;;;;;;;;;;;13.83;79.48;101502.25;4963625;28;19914;-64
2022/09/17 10:10:08;;;;;;;;;;;;;;;13.86;80.08;101492.75;4963684;28;19910;-64
2022/09/17 10:12:33;;;;;;;;;;;;;;;13.91;80.08;101493.72;4964712;28;19971;-64
2022/09/17 10:15:17;;;;;;;;;;;;;;;13.98;80.08;101497.34;4964281;28;19930;-64
2022/09/17 10:17:42;;;;;;;;;;;;;;;14.05;80.02;101498.38;4964557;28;20449;-64
2022/09/17 10:20:16;;;;;;;;;;;;;;;14.13;80.18;101495.88;4964092;28;19924;-64
2022/09/17 10:22:43;;;;;;;;;;;;;;;14.24;80.42;101496.97;4973773;28;19985;-64
2022/09/17 10:25:20;;;;;;;;;;;;;;;14.37;80.14;101495.47;4968023;28;19919;-64
2022/09/17 10:27:47;;;;;;;;;;;;;;;14.42;78.27;101499.94;4964594;28;19913;-64
2022/09/17 10:30:12;;;;;;;;;;;;;;;14.54;79.81;101494.03;4970933;28;19914;-64
2022/09/17 10:32:37;;;;;;;;;;;;;;;14.65;79.40;101486.38;4977629;28;19961;-64
2022/09/17 10:35:05;;;;;;;;;;;;;;;14.72;78.72;101490.88;4975367;28;19914;-64
2022/09/17 10:37:32;;;;;;;;;;;;;;;14.78;77.57;101495.34;4974360;28;19920;-61
2022/09/17 10:39:57;;;;;;;;;;;;;;;14.81;76.35;101494.50;4983708;28;19938;-61
2022/09/17 10:42:23;;;;;;;;;;;;;;;14.81;77.03;101497.13;4988487;28;20018;-61
2022/09/17 10:44:56;;;;;;;;;;;;;;;14.78;76.83;101496.22;4968452;28;19922;-60
2022/09/17 10:47:23;;;;;;;;;;;;;;;14.72;76.84;101484.75;4964878;28;19980;-60
2022/09/17 10:49:53;;;;;;;;;;;;;;;14.62;76.62;101496.81;4963683;28;19921;-60
2022/09/17 10:52:18;;;;;;;;;;;;;;;14.53;76.88;101488.75;4971845;28;19906;-60
2022/09/17 10:54:53;;;;;;;;;;;;;;;14.50;77.32;101489.59;4978168;28;19917;-61
2022/09/17 10:57:41;;;;;;;;;;;;;;;14.50;78.17;101486.09;4974856;28;19937;-61
2022/09/17 11:00:08;;;;;;;;;;;;;;;14.50;77.66;101486.09;4929669;28;19918;-60
2022/09/17 11:02:48;;;;;;;;;;;;;;;14.53;77.85;101487.00;4971314;28;19914;-60
2022/09/17 11:05:22;;;;;;;;;;;;;;;14.60;78.29;101486.25;4971747;28;19910;-60
2022/09/17 11:07:59;;;;;;;;;;;;;;;14.70;78.64;101478.56;4965407;28;20271;-65
2022/09/17 11:10:25;;;;;;;;;;;;;;;14.81;79.19;101482.25;4975592;28;19965;-65
2022/09/17 11:12:59;;;;;;;;;;;;;;;14.92;78.39;101478.06;4974020;28;19953;-64
2022/09/17 11:15:27;;;;;;;;;;;;;;;15.01;78.04;101474.72;4971658;28;19918;-65
2022/09/17 11:18:01;;;;;;;;;;;;;;;15.09;77.48;101466.94;4965420;28;20605;-65
2022/09/17 11:20:39;;;;;;;;;;;;;;;15.07;75.28;101472.19;4956240;28;19910;-65
2022/09/17 11:23:04;;;;;;;;;;;;;;;15.07;75.71;101473.94;4968274;28;19949;-65
2022/09/17 11:25:35;;;;;;;;;;;;;;;15.11;75.61;101468.75;4976194;28;20004;-65
2022/09/17 11:28:08;;;;;;;;;;;;;;;15.20;76.07;101461.88;4971172;28;19941;-65
2022/09/17 11:30:42;;;;;;;;;;;;;;;15.25;75.27;101463.72;4969512;28;19910;-65
2022/09/17 11:33:25;;;;;;;;;;;;;;;15.30;74.83;101462.00;4971493;28;19914;-65
2022/09/17 11:35:59;;;;;;;;;;;;;;;15.37;75.12;101454.25;4982145;28;19960;-65
2022/09/17 11:38:47;;;;;;;;;;;;;;;15.44;75.45;101462.22;4979703;28;19922;-60
2022/09/17 11:41:19;;;;;;;;;;;;;;;15.52;73.81;101458.81;4968492;28;20436;-61
2022/09/17 11:43:47;;;;;;;;;;;;;;;15.57;72.91;101457.09;4973291;28;19914;-60
2022/09/17 11:46:24;;;;;;;;;;;;;;;15.58;71.54;101462.41;4958820;28;19922;-60
2022/09/17 11:48:54;;;;;;;;;;;;;;;15.55;72.68;101456.22;4964781;28;20448;-61
2022/09/17 11:51:35;;;;;;;;;;;;;;;15.55;73.66;101457.09;4967158;28;19918;-60
2022/09/17 11:54:04;;;;;;;;;;;;;;;15.55;73.80;101454.47;4962029;28;19925;-61
2022/09/17 11:56:33;;;;;;;;;;;;;;;15.60;73.98;101459.78;4969561;28;19969;-60
2022/09/17 11:59:11;;;;;;;;;;;;;;;15.63;72.95;101457.19;4971827;28;19926;-61
2022/09/17 12:01:42;;;;;;;;;;;;;;;15.67;73.20;101455.47;4965700;28;20524;-61
2022/09/17 12:04:31;;;;;;;;;;;;;;;15.70;73.29;101456.41;4963586;28;19924;-60
2022/09/17 12:07:01;;;;;;;;;;;;;;;15.72;71.22;101448.56;4962085;28;20068;-60
2022/09/17 12:09:28;;;;;;;;;;;;;;;15.71;69.74;101447.66;4961541;28;19925;-60
2022/09/17 12:12:04;;;;;;;;;;;;;;;15.71;71.88;101449.41;4962342;28;19924;-61
2022/09/17 12:14:43;;;;;;;;;;;;;;;15.70;71.38;101450.25;4970184;28;19926;-61
2022/09/17 12:17:12;;;;;;;;;;;;;;;15.70;72.44;101445.91;4971712;28;19918;-61
2022/09/17 12:19:43;;;;;;;;;;;;;;;15.69;72.22;101445.88;4970660;28;19913;-61
2022/09/17 12:22:29;;;;;;;;;;;;;;;15.71;72.53;101447.66;4979373;28;19910;-61
2022/09/17 12:25:01;;;;;;;;;;;;;;;15.71;72.64;101431.88;4968798;28;19930;-63
2022/09/17 12:27:34;;;;;;;;;;;;;;;15.72;72.06;101444.16;4953964;28;20012;-63
2022/09/17 12:30:13;;;;;;;;;;;;;;;15.77;72.57;101444.22;4975507;28;19943;-63
2022/09/17 12:32:46;;;;;;;;;;;;;;;15.83;72.47;101431.22;4970124;28;19918;-63
2022/09/17 12:35:20;;;;;;;;;;;;;;;15.85;71.58;101439.97;4966664;28;19965;-63
2022/09/17 12:37:51;;;;;;;;;;;;;;;15.91;71.76;101444.41;4965371;28;19925;-63
2022/09/17 12:40:29;;;;;;;;;;;;;;;15.93;71.98;101440.06;4964328;28;19964;-63
2022/09/17 12:43:04;;;;;;;;;;;;;;;15.95;72.23;101435.72;4962853;28;19914;-63
2022/09/17 12:45:39;;;;;;;;;;;;;;;15.96;72.09;101419.97;4962137;28;19974;-63